Time;durP1;ratioP1;P1;durP2;ratioP2;P2;SDS_P1;SDS_P2;PMS_P1;PMS_P2;Temp;Humidity;BMP_temperature;BMP_pressure;BME280_temperature;BME280_humidity;BME280_pressure;Samples;Min_cycle;Max_cycle;Signal;HPM_P1;HPM_P2
2023/10/19 00:00:23;;;;;;;8.75;2.42;;;;;;;12.05;100.00;99505.19;5072239;28;20040;-60
2023/10/19 00:02:52;;;;;;;6.88;2.42;;;;;;;12.11;100.00;99504.13;5073578;28;20362;-61
2023/10/19 00:05:26;;;;;;;7.28;2.28;;;;;;;12.06;100.00;99496.44;5065721;28;20055;-62
2023/10/19 00:07:59;;;;;;;5.45;2.30;;;;;;;11.92;100.00;99505.66;5092309;28;20036;-61
2023/10/19 00:10:34;;;;;;;6.20;1.95;;;;;;;11.79;100.00;99502.59;5103609;28;20039;-60
2023/10/19 00:13:06;;;;;;;11.57;2.45;;;;;;;11.74;100.00;99488.78;5093035;28;20389;-61
2023/10/19 00:15:39;;;;;;;9.00;2.30;;;;;;;11.23;100.00;99391.91;5081911;28;20046;-61
2023/10/19 00:18:22;;;;;;;9.60;2.47;;;;;;;11.75;100.00;99474.78;5093113;28;20174;-60
2023/10/19 00:20:52;;;;;;;7.43;2.00;;;;;;;11.81;100.00;99479.84;5102822;28;20058;-61
2023/10/19 00:23:31;;;;;;;9.35;2.28;;;;;;;11.78;100.00;99479.91;5113969;28;20138;-61
2023/10/19 00:26:08;;;;;;;7.45;1.70;;;;;;;11.53;100.00;99423.19;5112550;28;20450;-61
2023/10/19 00:28:38;;;;;;;10.13;3.08;;;;;;;11.77;100.00;99486.06;5081996;28;20036;-60
2023/10/19 00:31:10;;;;;;;10.73;2.47;;;;;;;11.74;100.00;99483.56;5092604;28;20047;-61
2023/10/19 00:33:41;;;;;;;9.70;2.65;;;;;;;11.64;100.00;99472.53;5081811;28;20046;-62
2023/10/19 00:36:13;;;;;;;13.30;2.60;;;;;;;11.61;100.00;99468.28;5087736;28;20052;-61
2023/10/19 00:38:52;;;;;;;7.07;1.98;;;;;;;11.58;100.00;99473.59;5092593;28;20059;-61
2023/10/19 00:41:29;;;;;;;10.43;2.78;;;;;;;11.27;100.00;99425.81;5103925;28;20086;-61
2023/10/19 00:44:03;;;;;;;13.45;2.70;;;;;;;11.51;100.00;99476.47;5113188;28;20039;-61
2023/10/19 00:46:37;;;;;;;19.42;3.10;;;;;;;11.50;100.00;99470.38;5111928;28;20048;-61
2023/10/19 00:49:09;;;;;;;16.50;4.03;;;;;;;11.53;100.00;99479.88;5113554;28;20052;-60
2023/10/19 00:51:53;;;;;;;18.50;3.80;;;;;;;11.45;100.00;99461.81;5102268;28;20090;-61
2023/10/19 00:54:32;;;;;;;17.10;4.03;;;;;;;11.40;100.00;99458.50;5081354;28;20427;-61
2023/10/19 00:57:08;;;;;;;11.77;3.63;;;;;;;11.53;100.00;99459.81;5092559;28;20407;-61
2023/10/19 00:59:48;;;;;;;11.13;3.50;;;;;;;10.98;100.00;99378.78;5081371;28;20070;-61
2023/10/19 01:02:19;;;;;;;14.15;3.20;;;;;;;11.54;100.00;99452.81;5090671;28;20043;-62
2023/10/19 01:04:55;;;;;;;6.97;2.58;;;;;;;11.26;100.00;99418.84;5082983;28;20036;-62
2023/10/19 01:07:29;;;;;;;7.38;2.60;;;;;;;11.43;100.00;99463.63;5062167;28;20371;-61
2023/10/19 01:10:03;;;;;;;9.43;2.65;;;;;;;11.35;100.00;99449.94;5073784;28;20097;-61
2023/10/19 01:12:38;;;;;;;10.52;2.83;;;;;;;11.19;100.00;99429.53;5083366;28;20048;-62
2023/10/19 01:15:16;;;;;;;13.43;2.90;;;;;;;11.23;100.00;99430.25;5092960;28;20051;-61
2023/10/19 01:17:51;;;;;;;12.55;3.50;;;;;;;11.31;100.00;99438.75;5093494;28;20047;-61
2023/10/19 01:20:34;;;;;;;13.20;3.35;;;;;;;11.29;100.00;99429.25;5093020;28;20048;-61
2023/10/19 01:23:14;;;;;;;12.63;3.85;;;;;;;11.37;100.00;99432.44;5073187;28;20454;-61
2023/10/19 01:25:49;;;;;;;18.73;3.50;;;;;;;11.39;100.00;99430.63;5062245;28;20370;-60
2023/10/19 01:28:21;;;;;;;14.88;3.33;;;;;;;11.20;100.00;99394.63;5073151;28;20526;-62
2023/10/19 01:30:52;;;;;;;12.93;3.63;;;;;;;11.37;100.00;99422.00;5093352;28;20117;-61
2023/10/19 01:33:24;;;;;;;17.40;4.05;;;;;;;11.51;100.00;99445.94;5084129;28;20063;-61
2023/10/19 01:36:14;;;;;;;13.30;4.32;;;;;;;11.43;100.00;99442.69;5091930;28;20126;-61
2023/10/19 01:38:47;;;;;;;15.65;4.15;;;;;;;11.46;100.00;99447.84;5092044;28;20043;-61
2023/10/19 01:41:18;;;;;;;20.30;4.10;;;;;;;11.43;100.00;99438.34;5099802;28;20526;-61
2023/10/19 01:43:50;;;;;;;11.93;3.30;;;;;;;11.35;100.00;99422.03;5108993;28;20039;-61
2023/10/19 01:46:24;;;;;;;17.35;4.72;;;;;;;11.45;100.00;99435.66;5082600;28;20051;-62
2023/10/19 01:48:56;;;;;;;14.82;3.95;;;;;;;11.51;100.00;99419.78;5092512;28;20110;-61
2023/10/19 01:51:28;;;;;;;13.85;4.25;;;;;;;11.48;100.00;99414.63;5081444;28;20134;-61
2023/10/19 01:54:02;;;;;;;14.85;4.53;;;;;;;11.47;100.00;99402.47;5081567;28;20119;-61
2023/10/19 01:56:33;;;;;;;12.50;4.53;;;;;;;11.54;100.00;99413.59;5070976;28;20474;-61
2023/10/19 01:59:04;;;;;;;18.90;5.15;;;;;;;11.56;100.00;99412.63;5096889;28;20075;-60
2023/10/19 02:01:33;;;;;;;18.08;4.72;;;;;;;11.59;100.00;99412.50;5117423;28;20043;-61
2023/10/19 02:04:06;;;;;;;22.10;4.78;;;;;;;11.61;100.00;99413.31;5099566;28;20044;-61
2023/10/19 02:06:36;;;;;;;14.65;4.90;;;;;;;11.59;100.00;99412.50;5095823;28;20047;-61
2023/10/19 02:09:21;;;;;;;16.92;4.97;;;;;;;11.58;100.00;99404.69;5093337;28;20132;-61
2023/10/19 02:11:53;;;;;;;25.20;5.25;;;;;;;11.63;100.00;99406.28;5070498;28;20138;-61
2023/10/19 02:14:24;;;;;;;15.77;4.90;;;;;;;11.69;100.00;99401.75;5065962;28;20076;-61
2023/10/19 02:16:56;;;;;;;15.55;4.55;;;;;;;11.79;100.00;99403.97;5113248;28;20059;-60
2023/10/19 02:19:27;;;;;;;17.70;5.20;;;;;;;11.93;100.00;99382.59;5078445;28;20079;-61
2023/10/19 02:21:58;;;;;;;16.80;4.93;;;;;;;12.15;100.00;99384.41;5088135;28;20406;-60
2023/10/19 02:24:30;;;;;;;19.83;4.80;;;;;;;12.35;100.00;99387.13;5057602;28;20124;-61
2023/10/19 02:27:01;;;;;;;24.85;4.88;;;;;;;12.46;100.00;99384.97;5089789;28;20059;-60
2023/10/19 02:29:31;;;;;;;23.15;5.47;;;;;;;12.60;100.00;99376.56;5071010;28;20522;-61
2023/10/19 02:32:04;;;;;;;19.27;4.25;;;;;;;12.77;100.00;99378.53;5072046;28;20478;-61
2023/10/19 02:34:35;;;;;;;15.85;4.80;;;;;;;12.95;100.00;99362.09;5077824;28;20032;-61
2023/10/19 02:37:04;;;;;;;20.35;4.57;;;;;;;13.18;100.00;99368.16;5095266;28;20110;-61
2023/10/19 02:39:36;;;;;;;19.05;4.05;;;;;;;13.41;100.00;99367.22;5104428;28;20045;-60
2023/10/19 02:42:08;;;;;;;13.73;4.25;;;;;;;13.58;100.00;99362.09;5094630;28;20071;-61
2023/10/19 02:44:38;;;;;;;22.20;4.25;;;;;;;13.84;100.00;99359.25;5083880;28;20058;-61
2023/10/19 02:47:11;;;;;;;17.48;4.28;;;;;;;13.88;100.00;99373.94;5089107;28;20071;-61
2023/10/19 02:49:43;;;;;;;19.10;3.92;;;;;;;13.92;100.00;99371.13;5060932;28;20040;-61
2023/10/19 02:52:16;;;;;;;12.90;3.63;;;;;;;14.03;100.00;99368.03;5065855;28;20044;-61
2023/10/19 02:54:48;;;;;;;19.33;4.33;;;;;;;13.97;100.00;99368.28;5075522;28;20282;-61
2023/10/19 02:57:19;;;;;;;11.53;3.27;;;;;;;14.15;100.00;99356.97;5062440;28;20367;-62
2023/10/19 02:59:49;;;;;;;16.43;3.93;;;;;;;14.42;100.00;99353.97;5072789;28;20597;-61
2023/10/19 03:02:19;;;;;;;10.53;3.33;;;;;;;14.53;100.00;99346.50;5064785;28;20284;-61
2023/10/19 03:04:49;;;;;;;13.47;3.37;;;;;;;14.80;100.00;99327.66;5072426;28;20361;-62
2023/10/19 03:07:20;;;;;;;14.63;3.05;;;;;;;14.84;100.00;99331.88;5062492;28;20373;-61
2023/10/19 03:09:53;;;;;;;11.80;2.47;;;;;;;14.79;100.00;99331.25;5075966;28;20154;-61
2023/10/19 03:12:25;;;;;;;9.87;2.97;;;;;;;14.69;99.06;99322.09;5065149;28;20284;-61
2023/10/19 03:14:54;;;;;;;11.93;2.67;;;;;;;14.62;97.19;99322.38;5074386;28;20680;-61
2023/10/19 03:17:26;;;;;;;10.18;2.78;;;;;;;14.49;95.18;99292.31;5060385;28;20321;-62
2023/10/19 03:19:56;;;;;;;8.73;3.17;;;;;;;14.95;95.40;99305.03;5074973;28;20425;-61
2023/10/19 03:22:27;;;;;;;11.87;4.00;;;;;;;15.14;94.36;99315.50;5062270;28;20364;-61
2023/10/19 03:25:11;;;;;;;13.37;2.77;;;;;;;15.13;92.72;99303.28;5074640;28;20048;-62
2023/10/19 03:27:44;;;;;;;10.47;2.60;;;;;;;15.17;89.06;99310.91;5061731;28;20331;-61
2023/10/19 03:30:19;;;;;;;8.83;2.30;;;;;;;15.40;85.77;99301.88;5063128;28;20278;-62
2023/10/19 03:32:49;;;;;;;7.33;2.30;;;;;;;15.61;79.41;99306.94;5074226;28;20289;-62
2023/10/19 03:35:21;;;;;;;11.23;2.17;;;;;;;15.64;74.37;99315.53;5064450;28;20286;-62
2023/10/19 03:37:51;;;;;;;7.30;2.20;;;;;;;15.66;76.19;99312.81;5072506;28;20695;-61
2023/10/19 03:40:29;;;;;;;7.57;2.60;;;;;;;15.57;73.72;99302.75;5064645;28;20282;-61
2023/10/19 03:43:05;;;;;;;9.47;2.10;;;;;;;15.62;73.75;99321.81;5074604;28;20274;-61
2023/10/19 03:45:38;;;;;;;6.23;2.03;;;;;;;15.40;69.02;99312.41;5059802;28;20288;-62
2023/10/19 03:48:10;;;;;;;12.63;2.50;;;;;;;15.23;68.16;99330.84;5070499;28;20365;-62
2023/10/19 03:50:41;;;;;;;8.53;2.57;;;;;;;15.13;67.92;99329.59;5063045;28;20282;-61
2023/10/19 03:53:13;;;;;;;10.23;2.30;;;;;;;14.93;69.31;99328.78;5067390;28;20417;-60
2023/10/19 03:55:47;;;;;;;10.23;3.03;;;;;;;14.82;70.17;99315.31;5072056;28;20277;-62
2023/10/19 03:58:20;;;;;;;7.30;1.80;;;;;;;14.84;68.47;99319.56;5061526;28;20312;-61
2023/10/19 04:00:51;;;;;;;8.30;1.87;;;;;;;14.86;68.95;99322.13;5073703;28;20286;-62
2023/10/19 04:03:24;;;;;;;7.13;1.83;;;;;;;14.97;70.20;99325.06;5063086;28;20388;-62
2023/10/19 04:05:55;;;;;;;3.93;1.60;;;;;;;15.01;69.26;99321.38;5073245;28;20303;-60
2023/10/19 04:08:26;;;;;;;5.37;1.43;;;;;;;14.98;65.31;99326.78;5061788;28;20305;-61
2023/10/19 04:11:11;;;;;;;4.33;1.80;;;;;;;14.94;66.20;99329.63;5070141;28;20281;-62
2023/10/19 04:13:42;;;;;;;5.03;1.60;;;;;;;14.88;65.17;99336.06;5061764;28;20735;-61
2023/10/19 04:16:12;;;;;;;6.10;1.77;;;;;;;14.86;65.50;99327.38;5067715;28;20271;-62
2023/10/19 04:18:44;;;;;;;6.17;1.70;;;;;;;14.86;65.88;99327.38;5071171;28;20274;-62
2023/10/19 04:21:15;;;;;;;4.17;1.27;;;;;;;14.78;63.49;99319.88;5061432;28;20294;-62
2023/10/19 04:23:46;;;;;;;5.93;1.47;;;;;;;14.70;64.31;99326.41;5071278;28;20712;-62
2023/10/19 04:26:19;;;;;;;9.00;1.80;;;;;;;14.67;65.17;99328.25;5064543;28;21250;-61
2023/10/19 04:28:52;;;;;;;8.10;1.67;;;;;;;14.44;64.47;99299.56;5070934;28;20381;-61
2023/10/19 04:31:23;;;;;;;5.40;1.60;;;;;;;14.62;64.84;99334.69;5063419;28;20320;-61
2023/10/19 04:33:54;;;;;;;4.37;1.50;;;;;;;14.63;64.87;99347.75;5071800;28;20302;-61
2023/10/19 04:36:25;;;;;;;3.77;1.57;;;;;;;14.65;63.77;99345.03;5059296;28;20293;-61
2023/10/19 04:38:56;;;;;;;8.03;1.53;;;;;;;14.63;63.04;99352.16;5070520;28;20293;-62
2023/10/19 04:41:28;;;;;;;5.27;1.47;;;;;;;14.59;62.98;99340.09;5060667;28;20296;-61
2023/10/19 04:44:00;;;;;;;5.30;1.43;;;;;;;14.66;64.69;99352.88;5071694;28;20959;-60
2023/10/19 04:46:31;;;;;;;5.03;2.00;;;;;;;14.64;63.99;99349.44;5060883;28;20313;-62
2023/10/19 04:49:01;;;;;;;6.10;1.70;;;;;;;14.65;64.60;99356.44;5072608;28;20266;-62
2023/10/19 04:51:33;;;;;;;5.53;1.77;;;;;;;14.52;63.97;99360.50;5083286;28;20342;-61
2023/10/19 04:54:05;;;;;;;10.37;1.87;;;;;;;14.43;62.97;99367.06;5089379;28;20286;-62
2023/10/19 04:56:37;;;;;;;8.83;1.70;;;;;;;14.08;62.84;99331.03;5103652;28;20587;-61
2023/10/19 04:59:08;;;;;;;4.83;1.80;;;;;;;14.33;64.81;99372.81;5102884;28;20269;-61
2023/10/19 05:01:40;;;;;;;11.97;2.00;;;;;;;14.34;64.40;99378.00;5081292;28;20340;-62
2023/10/19 05:04:12;;;;;;;6.13;2.03;;;;;;;14.21;64.64;99385.59;5092327;28;20261;-61
2023/10/19 05:06:43;;;;;;;2.27;1.43;;;;;;;14.27;66.75;99392.34;5081600;28;20277;-61
2023/10/19 05:09:14;;;;;;;7.80;1.87;;;;;;;14.37;65.08;99387.50;5086203;28;20266;-61
2023/10/19 05:11:47;;;;;;;5.27;1.80;;;;;;;14.50;65.67;99399.16;5085118;28;20347;-61
2023/10/19 05:14:20;;;;;;;7.47;2.07;;;;;;;14.62;63.71;99414.38;5081195;28;20278;-61
2023/10/19 05:16:50;;;;;;;7.57;2.43;;;;;;;14.69;64.80;99414.13;5092261;28;20349;-61
2023/10/19 05:19:21;;;;;;;7.00;2.20;;;;;;;14.74;64.65;99417.38;5064897;28;20270;-60
2023/10/19 05:21:52;;;;;;;4.83;2.13;;;;;;;14.73;65.50;99428.84;5083612;28;20265;-61
2023/10/19 05:24:22;;;;;;;5.77;2.23;;;;;;;14.61;63.48;99441.63;5075459;28;20344;-61
2023/10/19 05:26:55;;;;;;;4.97;2.03;;;;;;;14.33;64.27;99441.16;5075544;28;20274;-60
2023/10/19 05:29:25;;;;;;;7.80;1.93;;;;;;;13.99;62.53;99453.13;5075962;28;20293;-61
2023/10/19 05:31:57;;;;;;;6.47;2.20;;;;;;;13.80;63.22;99456.56;5085574;28;20281;-61
2023/10/19 05:34:29;;;;;;;3.67;2.03;;;;;;;13.79;63.26;99459.25;5084808;28;20278;-60
2023/10/19 05:37:02;;;;;;;6.00;2.17;;;;;;;13.78;63.29;99457.53;5094673;28;20275;-61
2023/10/19 05:39:33;;;;;;;4.83;2.30;;;;;;;13.78;63.39;99468.91;5098755;28;20374;-61
2023/10/19 05:42:05;;;;;;;19.30;13.67;;;;;;;13.69;61.17;99468.44;5097608;28;20288;-61
2023/10/19 05:44:36;;;;;;;5.90;2.53;;;;;;;13.64;63.74;99473.84;5080321;28;20364;-60
2023/10/19 05:47:06;;;;;;;5.80;2.70;;;;;;;13.58;63.96;99477.59;5096289;28;20043;-61
2023/10/19 05:49:37;;;;;;;3.90;2.03;;;;;;;13.59;63.83;99484.53;5100222;28;20396;-61
2023/10/19 05:52:07;;;;;;;6.33;2.60;;;;;;;13.55;64.01;99487.34;5086823;28;20294;-61
2023/10/19 05:54:38;;;;;;;7.10;2.73;;;;;;;13.46;64.68;99493.00;5071881;28;20356;-61
2023/10/19 05:57:10;;;;;;;5.73;2.30;;;;;;;13.32;64.95;99477.78;5076277;28;20294;-60
2023/10/19 05:59:40;;;;;;;8.00;2.50;;;;;;;13.28;63.69;99490.19;5093675;28;20347;-61
2023/10/19 06:02:11;;;;;;;5.97;2.10;;;;;;;13.19;64.60;99501.00;5075398;28;20319;-61
2023/10/19 06:04:41;;;;;;;4.33;2.37;;;;;;;13.14;65.48;99497.72;5065252;28;20282;-61
2023/10/19 06:07:11;;;;;;;6.13;2.40;;;;;;;13.06;65.75;99513.75;5086639;28;20338;-60
2023/10/19 06:09:42;;;;;;;7.40;2.63;;;;;;;12.92;65.97;99508.16;5093635;28;20345;-61
2023/10/19 06:12:14;;;;;;;8.50;2.40;;;;;;;12.86;65.95;99524.16;5075362;28;20656;-61
2023/10/19 06:14:45;;;;;;;4.93;2.93;;;;;;;12.75;66.17;99519.28;5088851;28;20716;-61
2023/10/19 06:17:19;;;;;;;10.95;4.60;;;;;;;12.61;66.45;99518.97;5084571;28;20274;-60
2023/10/19 06:19:49;;;;;;;7.60;2.90;;;;;;;12.58;66.69;99513.81;5095664;28;20036;-61
2023/10/19 06:22:20;;;;;;;19.50;12.57;;;;;;;12.49;66.89;99515.88;5075286;28;20135;-61
2023/10/19 06:24:50;;;;;;;26.60;16.55;;;;;;;12.35;65.01;99523.34;5091009;28;20076;-62
2023/10/19 06:27:23;;;;;;;129.88;79.63;;;;;;;12.27;64.79;99528.00;5105397;28;20036;-61
2023/10/19 06:29:53;;;;;;;72.97;39.17;;;;;;;12.18;62.86;99520.47;5081249;28;20082;-61
2023/10/19 06:32:24;;;;;;;45.20;27.05;;;;;;;12.18;63.15;99530.94;5074581;28;20130;-61
2023/10/19 06:34:57;;;;;;;53.25;36.67;;;;;;;12.15;63.97;99516.19;5113340;28;20112;-62
2023/10/19 06:37:29;;;;;;;51.20;31.20;;;;;;;12.13;64.15;99523.28;5116216;28;20104;-62
2023/10/19 06:39:59;;;;;;;51.63;28.50;;;;;;;12.09;64.47;99527.75;5085398;28;20079;-62
2023/10/19 06:42:31;;;;;;;11.70;5.90;;;;;;;12.04;64.85;99529.66;5083956;28;20472;-62
2023/10/19 06:45:02;;;;;;;10.52;3.90;;;;;;;12.00;65.58;99538.53;5093009;28;20035;-61
2023/10/19 06:47:37;;;;;;;5.90;2.60;;;;;;;11.86;64.96;99543.34;5079445;28;20118;-62
2023/10/19 06:50:09;;;;;;;8.55;2.83;;;;;;;11.49;65.39;99500.06;5073846;28;20039;-62
2023/10/19 06:52:40;;;;;;;6.53;3.30;;;;;;;11.72;65.72;99563.88;5063897;28;20047;-61
2023/10/19 06:55:16;;;;;;;7.93;3.58;;;;;;;11.63;66.65;99565.00;5072869;28;20059;-60
2023/10/19 06:57:50;;;;;;;7.90;3.92;;;;;;;11.56;67.26;99572.22;5074534;28;20144;-61
2023/10/19 07:00:22;;;;;;;10.57;4.47;;;;;;;11.49;68.16;99578.53;5062423;28;20520;-62
2023/10/19 07:02:53;;;;;;;13.20;5.65;;;;;;;11.42;68.45;99592.72;5075266;28;20071;-61
2023/10/19 07:05:25;;;;;;;11.20;4.78;;;;;;;11.31;68.94;99579.13;5063096;28;20059;-61
2023/10/19 07:07:56;;;;;;;8.82;4.30;;;;;;;11.20;69.20;99593.34;5074685;28;20056;-62
2023/10/19 07:10:27;;;;;;;11.32;4.57;;;;;;;11.12;70.00;99595.34;5062979;28;20075;-60
2023/10/19 07:12:59;;;;;;;6.55;3.70;;;;;;;11.05;70.35;99593.81;5075967;28;20089;-61
2023/10/19 07:15:29;;;;;;;10.70;4.10;;;;;;;10.97;70.98;99601.03;5061800;28;20116;-61
2023/10/19 07:18:00;;;;;;;8.68;3.17;;;;;;;10.88;71.16;99590.81;5084227;28;20147;-62
2023/10/19 07:20:31;;;;;;;8.10;3.58;;;;;;;10.83;71.42;99598.78;5062175;28;20043;-61
2023/10/19 07:23:09;;;;;;;9.65;3.22;;;;;;;10.75;72.50;99601.59;5075031;28;20059;-61
2023/10/19 07:25:42;;;;;;;8.00;3.33;;;;;;;10.65;73.75;99610.59;5060552;28;20051;-62
2023/10/19 07:28:15;;;;;;;11.40;3.20;;;;;;;10.44;72.83;99611.19;5064266;28;20442;-62
2023/10/19 07:30:46;;;;;;;10.27;3.60;;;;;;;10.38;73.17;99621.78;5073046;28;20059;-61
2023/10/19 07:33:19;;;;;;;9.05;3.30;;;;;;;10.33;74.48;99620.16;5061943;28;20047;-62
2023/10/19 07:35:52;;;;;;;4.28;2.75;;;;;;;10.28;74.28;99627.25;5075011;28;20827;-62
2023/10/19 07:38:24;;;;;;;9.98;2.70;;;;;;;10.18;74.72;99625.72;5071609;28;20056;-63
2023/10/19 07:40:55;;;;;;;6.05;2.65;;;;;;;10.05;75.06;99634.75;5076458;28;20552;-63
2023/10/19 07:43:28;;;;;;;6.45;2.53;;;;;;;9.87;75.99;99638.66;5061547;28;20445;-62
2023/10/19 07:45:58;;;;;;;7.68;2.50;;;;;;;9.59;76.14;99588.91;5075664;28;20035;-63
2023/10/19 07:48:29;;;;;;;14.15;3.58;;;;;;;9.79;76.29;99644.06;5062704;28;20043;-63
2023/10/19 07:50:59;;;;;;;13.90;2.95;;;;;;;9.67;76.92;99649.56;5070578;28;20146;-62
2023/10/19 07:53:30;;;;;;;5.68;2.70;;;;;;;9.47;77.41;99653.47;5059934;28;20055;-62
2023/10/19 07:56:00;;;;;;;16.45;5.32;;;;;;;9.33;78.50;99652.88;5074050;28;20258;-63
2023/10/19 07:58:33;;;;;;;10.90;3.08;;;;;;;9.18;79.67;99650.59;5064685;28;20052;-62
2023/10/19 08:01:05;;;;;;;26.25;10.45;;;;;;;9.03;80.97;99656.97;5069285;28;20036;-63
2023/10/19 08:03:36;;;;;;;31.23;15.25;;;;;;;8.89;82.74;99654.66;5060810;28;20054;-63
2023/10/19 08:06:07;;;;;;;7.97;4.78;;;;;;;8.83;83.52;99659.97;5074802;28;20458;-63
2023/10/19 08:08:37;;;;;;;7.15;3.15;;;;;;;8.73;84.07;99663.63;5064169;28;20078;-62
2023/10/19 08:11:08;;;;;;;7.05;3.30;;;;;;;8.62;84.56;99666.44;5075052;28;20134;-62
2023/10/19 08:13:40;;;;;;;17.23;3.85;;;;;;;8.57;84.93;99674.34;5063017;28;20055;-61
2023/10/19 08:16:12;;;;;;;9.32;3.30;;;;;;;8.48;85.25;99669.28;5073341;28;20051;-61
2023/10/19 08:18:42;;;;;;;7.63;3.95;;;;;;;8.49;85.34;99677.97;5063195;28;20216;-61
2023/10/19 08:21:12;;;;;;;12.68;5.97;;;;;;;8.49;84.78;99681.44;5066635;28;20056;-63
2023/10/19 08:23:45;;;;;;;17.63;7.72;;;;;;;8.50;84.57;99680.53;5073892;28;20067;-62
2023/10/19 08:26:16;;;;;;;20.40;7.13;;;;;;;8.46;84.65;99691.03;5062886;28;20050;-61
2023/10/19 08:28:49;;;;;;;13.98;6.47;;;;;;;8.43;84.87;99702.34;5073639;28;20048;-62
2023/10/19 08:31:20;;;;;;;14.75;5.90;;;;;;;8.46;85.38;99697.09;5062985;28;20047;-62
2023/10/19 08:33:50;;;;;;;17.02;6.28;;;;;;;8.46;84.74;99699.69;5072461;28;20047;-61
2023/10/19 08:36:22;;;;;;;9.35;4.55;;;;;;;8.38;84.99;99698.94;5062763;28;20053;-61
2023/10/19 08:38:53;;;;;;;13.00;5.20;;;;;;;8.26;85.34;99704.34;5072076;28;20047;-62
2023/10/19 08:41:24;;;;;;;10.95;5.43;;;;;;;8.28;86.20;99705.16;5061173;28;20139;-62
2023/10/19 08:43:56;;;;;;;7.78;4.72;;;;;;;8.27;86.41;99706.06;5072620;28;20036;-63
2023/10/19 08:46:28;;;;;;;11.70;5.90;;;;;;;8.38;86.83;99705.00;5060639;28;20044;-62
2023/10/19 08:48:59;;;;;;;13.70;5.32;;;;;;;8.41;86.15;99706.72;5070629;28;20040;-62
2023/10/19 08:51:31;;;;;;;13.35;4.95;;;;;;;8.39;85.71;99711.97;5061683;28;20046;-61
2023/10/19 08:54:03;;;;;;;14.65;5.18;;;;;;;8.31;85.63;99699.91;5071564;28;20380;-62
2023/10/19 08:56:33;;;;;;;14.10;5.18;;;;;;;8.39;85.35;99711.09;5061828;28;20155;-62
2023/10/19 08:59:06;;;;;;;12.38;4.65;;;;;;;8.37;85.79;99720.66;5074934;28;20048;-63
2023/10/19 09:01:36;;;;;;;7.00;4.15;;;;;;;8.33;85.77;99716.38;5058748;28;20402;-63
2023/10/19 09:04:07;;;;;;;10.77;4.25;;;;;;;8.28;85.40;99718.19;5071440;28;20446;-61
2023/10/19 09:06:42;;;;;;;9.80;5.18;;;;;;;8.23;85.74;99714.81;5060741;28;20512;-63
2023/10/19 09:09:16;;;;;;;13.20;4.55;;;;;;;8.30;85.42;99726.84;5063526;28;20052;-61
2023/10/19 09:11:47;;;;;;;10.82;4.32;;;;;;;8.33;86.00;99724.19;5070973;28;20130;-62
2023/10/19 09:14:33;;;;;;;8.93;3.95;;;;;;;8.36;85.92;99732.81;5063629;28;20128;-62
2023/10/19 09:17:05;;;;;;;7.25;3.67;;;;;;;8.37;85.65;99738.88;5074018;28;20174;-62
2023/10/19 09:19:41;;;;;;;6.07;3.40;;;;;;;8.34;85.06;99738.94;5060354;28;20055;-62
2023/10/19 09:22:22;;;;;;;8.05;4.03;;;;;;;8.15;85.25;99718.38;5067788;28;20039;-62
2023/10/19 09:24:53;;;;;;;6.03;3.80;;;;;;;8.19;85.17;99735.69;5071544;28;20370;-62
2023/10/19 09:27:24;;;;;;;11.90;5.80;;;;;;;8.12;85.94;99722.78;5058180;28;20046;-63
2023/10/19 09:29:57;;;;;;;15.80;6.85;;;;;;;8.17;86.00;99732.22;5069121;28;20039;-60
2023/10/19 09:32:28;;;;;;;11.10;6.53;;;;;;;8.12;85.80;99739.25;5061319;28;20052;-63
2023/10/19 09:34:59;;;;;;;11.77;6.38;;;;;;;8.10;85.67;99751.41;5070675;28;20044;-63
2023/10/19 09:37:31;;;;;;;9.48;5.60;;;;;;;8.11;85.19;99753.16;5071285;28;20048;-62
2023/10/19 09:40:01;;;;;;;11.75;5.47;;;;;;;8.09;85.14;99744.50;5068389;28;20048;-62
2023/10/19 09:42:33;;;;;;;13.40;5.65;;;;;;;8.10;85.08;99740.16;5062110;28;20057;-62
2023/10/19 09:45:08;;;;;;;9.02;4.57;;;;;;;8.04;85.20;99746.31;5067965;28;20126;-62
2023/10/19 09:47:43;;;;;;;9.95;3.90;;;;;;;7.97;85.02;99739.47;5061632;28;20055;-62
2023/10/19 09:50:14;;;;;;;8.52;3.35;;;;;;;7.94;84.90;99745.56;5062194;28;20055;-63
2023/10/19 09:52:44;;;;;;;5.82;3.70;;;;;;;7.80;84.89;99741.44;5072103;28;20035;-63
2023/10/19 09:55:27;;;;;;;9.23;3.55;;;;;;;7.67;85.56;99728.59;5062058;28;20477;-62
2023/10/19 09:58:02;;;;;;;7.85;3.38;;;;;;;7.69;85.77;99745.06;5071448;28;20044;-63
2023/10/19 10:00:35;;;;;;;9.43;4.13;;;;;;;7.68;85.81;99751.13;5061044;28;20058;-62
2023/10/19 10:03:06;;;;;;;8.93;4.30;;;;;;;7.69;86.55;99742.44;5071685;28;20442;-62
2023/10/19 10:05:49;;;;;;;5.68;3.20;;;;;;;7.69;86.51;99750.25;5064388;28;20070;-62
2023/10/19 10:08:35;;;;;;;6.50;3.55;;;;;;;7.32;85.92;99688.31;5058514;28;20083;-62
2023/10/19 10:11:23;;;;;;;10.82;4.82;;;;;;;7.46;85.03;99747.94;5071691;28;20097;-62
2023/10/19 10:13:53;;;;;;;10.15;6.30;;;;;;;7.13;85.41;99741.38;5058981;28;20086;-63
2023/10/19 10:16:28;;;;;;;17.45;7.82;;;;;;;6.73;87.00;99739.16;5060442;28;20112;-61
2023/10/19 10:19:01;;;;;;;22.75;13.02;;;;;;;6.49;88.51;99735.06;5073797;28;20137;-63
2023/10/19 10:21:33;;;;;;;24.95;14.32;;;;;;;6.34;89.67;99746.44;5063917;28;20378;-62
2023/10/19 10:24:06;;;;;;;14.05;9.30;;;;;;;6.25;90.96;99741.28;5085172;28;20408;-63
2023/10/19 10:27:00;;;;;;;14.70;7.28;;;;;;;6.25;91.88;99754.28;5066188;28;20061;-61
2023/10/19 10:29:31;;;;;;;16.98;6.47;;;;;;;6.26;92.04;99753.38;5064211;28;20920;-61
2023/10/19 10:32:05;;;;;;;10.40;5.60;;;;;;;6.32;92.33;99750.75;5074131;28;20382;-62
2023/10/19 10:34:44;;;;;;;25.40;8.75;;;;;;;6.35;92.16;99736.91;5071926;28;20078;-63
2023/10/19 10:37:15;;;;;;;14.32;6.57;;;;;;;6.51;91.79;99748.00;5065016;28;20370;-62
2023/10/19 10:39:46;;;;;;;14.93;6.50;;;;;;;6.65;92.09;99743.56;5072825;28;20074;-62
2023/10/19 10:42:18;;;;;;;11.68;6.20;;;;;;;6.73;91.19;99754.75;5066270;28;20063;-63
2023/10/19 10:44:52;;;;;;;12.48;5.35;;;;;;;6.76;91.07;99759.91;5073703;28;20064;-63
2023/10/19 10:47:25;;;;;;;10.25;4.93;;;;;;;6.88;91.23;99762.38;5066131;28;20597;-62
2023/10/19 10:49:57;;;;;;;15.30;4.75;;;;;;;6.96;90.30;99761.47;5072940;28;20472;-62
2023/10/19 10:52:28;;;;;;;9.38;4.32;;;;;;;7.04;89.83;99764.84;5062226;28;20055;-61
2023/10/19 10:55:00;;;;;;;11.48;3.95;;;;;;;6.40;89.11;99672.84;5075699;28;20394;-63
2023/10/19 10:57:34;;;;;;;13.23;4.65;;;;;;;7.09;89.06;99763.09;5062047;28;20052;-61
2023/10/19 11:00:15;;;;;;;9.90;5.45;;;;;;;7.05;88.52;99761.38;5072046;28;20052;-63
2023/10/19 11:02:49;;;;;;;9.90;4.38;;;;;;;7.05;88.24;99766.56;5064692;28;20094;-64
2023/10/19 11:05:24;;;;;;;10.00;4.47;;;;;;;6.99;88.38;99771.81;5081474;28;20035;-63
2023/10/19 11:08:09;;;;;;;9.40;3.90;;;;;;;6.97;88.61;99778.78;5096897;28;20055;-64
2023/10/19 11:10:39;;;;;;;8.15;4.13;;;;;;;6.97;88.42;99771.00;5095633;28;20052;-63
2023/10/19 11:13:13;;;;;;;8.95;3.92;;;;;;;7.00;88.46;99776.16;5075907;28;20063;-64
2023/10/19 11:15:50;;;;;;;8.63;4.35;;;;;;;6.95;88.02;99767.53;5063449;28;20048;-64
2023/10/19 11:18:37;;;;;;;9.90;4.15;;;;;;;6.98;88.48;99775.31;5065051;28;20106;-64
2023/10/19 11:21:11;;;;;;;14.43;4.45;;;;;;;6.73;87.86;99718.41;5100031;28;20104;-64
2023/10/19 11:23:43;;;;;;;15.82;4.78;;;;;;;6.38;87.48;99670.25;5073996;28;20047;-65
2023/10/19 11:26:14;;;;;;;10.60;4.88;;;;;;;6.91;86.92;99775.38;5063516;28;20048;-63
2023/10/19 11:28:47;;;;;;;13.52;5.32;;;;;;;6.80;87.75;99776.34;5084481;28;20043;-64
2023/10/19 11:31:21;;;;;;;10.77;4.97;;;;;;;6.72;87.80;99791.97;5081047;28;20039;-64
2023/10/19 11:33:55;;;;;;;10.63;5.25;;;;;;;6.51;87.93;99785.22;5089164;28;20517;-65
2023/10/19 11:36:25;;;;;;;14.48;5.57;;;;;;;6.47;89.40;99799.94;5085435;28;20050;-64
2023/10/19 11:38:56;;;;;;;15.77;6.72;;;;;;;6.44;89.97;99787.00;5101279;28;20430;-64
2023/10/19 11:41:27;;;;;;;12.73;5.68;;;;;;;6.41;90.26;99789.59;5095818;28;20043;-63
2023/10/19 11:43:57;;;;;;;18.58;5.63;;;;;;;6.48;90.51;99791.28;5095435;28;20417;-64
2023/10/19 11:46:29;;;;;;;14.57;6.15;;;;;;;6.43;89.51;99798.25;5080324;28;20056;-64
2023/10/19 11:49:03;;;;;;;17.88;7.13;;;;;;;6.37;89.31;99803.47;5093744;28;20058;-64
2023/10/19 11:51:34;;;;;;;19.13;7.22;;;;;;;6.17;89.34;99794.97;5104201;28;20040;-64
2023/10/19 11:54:06;;;;;;;19.02;8.85;;;;;;;6.09;89.50;99796.72;5076263;28;20358;-64